sensor_id;sensor_type;location;lat;lon;timestamp;pressure;altitude;pressure_sealevel;temperature;humidity
20628;BME280;10473;42.734;24.258;2024-02-14T00:00:07;91730.63;;;1.77;88.12
20628;BME280;10473;42.734;24.258;2024-02-14T00:02:35;91719.00;;;1.75;87.66
20628;BME280;10473;42.734;24.258;2024-02-14T00:05:02;91730.75;;;1.92;87.85
20628;BME280;10473;42.734;24.258;2024-02-14T00:07:28;91722.41;;;2.07;87.41
20628;BME280;10473;42.734;24.258;2024-02-14T00:09:54;91728.53;;;1.89;87.26
20628;BME280;10473;42.734;24.258;2024-02-14T00:12:20;91730.31;;;1.72;87.94
20628;BME280;10473;42.734;24.258;2024-02-14T00:14:45;91719.63;;;1.77;87.62
20628;BME280;10473;42.734;24.258;2024-02-14T00:17:11;91734.00;;;1.78;88.28
20628;BME280;10473;42.734;24.258;2024-02-14T00:19:37;91737.63;;;1.83;87.52
20628;BME280;10473;42.734;24.258;2024-02-14T00:22:03;91747.16;;;2.06;87.83
20628;BME280;10473;42.734;24.258;2024-02-14T00:24:29;91742.44;;;1.70;88.76
20628;BME280;10473;42.734;24.258;2024-02-14T00:26:55;91746.59;;;1.55;90.42
20628;BME280;10473;42.734;24.258;2024-02-14T00:29:22;91737.47;;;1.77;89.62
20628;BME280;10473;42.734;24.258;2024-02-14T00:31:49;91742.06;;;1.98;87.38
20628;BME280;10473;42.734;24.258;2024-02-14T00:34:15;91754.69;;;1.83;87.51
20628;BME280;10473;42.734;24.258;2024-02-14T00:36:40;91739.88;;;1.78;87.36
20628;BME280;10473;42.734;24.258;2024-02-14T00:39:06;91753.41;;;1.87;85.48
20628;BME280;10473;42.734;24.258;2024-02-14T00:41:35;91742.84;;;2.07;85.28
20628;BME280;10473;42.734;24.258;2024-02-14T00:44:01;91740.41;;;2.21;85.16
20628;BME280;10473;42.734;24.258;2024-02-14T00:46:29;91748.91;;;1.97;85.97
20628;BME280;10473;42.734;24.258;2024-02-14T00:48:54;91740.19;;;1.75;87.00
20628;BME280;10473;42.734;24.258;2024-02-14T00:51:21;91737.00;;;1.81;87.25
20628;BME280;10473;42.734;24.258;2024-02-14T00:53:46;91727.03;;;2.11;86.08
20628;BME280;10473;42.734;24.258;2024-02-14T00:56:12;91738.03;;;2.12;85.20
20628;BME280;10473;42.734;24.258;2024-02-14T00:58:37;91729.81;;;2.33;83.84
20628;BME280;10473;42.734;24.258;2024-02-14T01:01:03;91738.38;;;2.40;83.89
20628;BME280;10473;42.734;24.258;2024-02-14T01:03:29;91731.50;;;2.09;84.21
20628;BME280;10473;42.734;24.258;2024-02-14T01:05:54;91730.53;;;2.10;84.29
20628;BME280;10473;42.734;24.258;2024-02-14T01:08:20;91729.97;;;2.31;83.84
20628;BME280;10473;42.734;24.258;2024-02-14T01:10:46;91723.56;;;2.04;82.30
20628;BME280;10473;42.734;24.258;2024-02-14T01:13:12;91728.09;;;2.25;82.70
20628;BME280;10473;42.734;24.258;2024-02-14T01:15:38;91715.91;;;2.35;81.82
20628;BME280;10473;42.734;24.258;2024-02-14T01:18:03;91711.34;;;2.22;82.93
20628;BME280;10473;42.734;24.258;2024-02-14T01:20:29;91729.44;;;2.13;82.64
20628;BME280;10473;42.734;24.258;2024-02-14T01:22:54;91743.25;;;2.26;80.78
20628;BME280;10473;42.734;24.258;2024-02-14T01:25:20;91737.50;;;2.24;79.69
20628;BME280;10473;42.734;24.258;2024-02-14T01:27:46;91746.50;;;2.52;77.73
20628;BME280;10473;42.734;24.258;2024-02-14T01:30:13;91724.84;;;2.39;79.04
20628;BME280;10473;42.734;24.258;2024-02-14T01:32:40;91718.81;;;2.32;80.42
20628;BME280;10473;42.734;24.258;2024-02-14T01:35:06;91725.72;;;2.55;80.49
20628;BME280;10473;42.734;24.258;2024-02-14T01:37:31;91727.47;;;2.54;80.53
20628;BME280;10473;42.734;24.258;2024-02-14T01:39:57;91728.19;;;2.40;81.02
20628;BME280;10473;42.734;24.258;2024-02-14T01:42:22;91721.31;;;2.40;80.30
20628;BME280;10473;42.734;24.258;2024-02-14T01:44:48;91726.63;;;2.31;80.83
20628;BME280;10473;42.734;24.258;2024-02-14T01:47:13;91732.28;;;2.10;80.38
20628;BME280;10473;42.734;24.258;2024-02-14T01:49:39;91745.81;;;2.18;80.76
20628;BME280;10473;42.734;24.258;2024-02-14T01:52:09;91738.38;;;2.40;80.56
20628;BME280;10473;42.734;24.258;2024-02-14T01:54:35;91747.16;;;2.45;81.66
20628;BME280;10473;42.734;24.258;2024-02-14T01:57:02;91742.13;;;2.21;81.81
20628;BME280;10473;42.734;24.258;2024-02-14T01:59:28;91750.31;;;2.08;81.70
20628;BME280;10473;42.734;24.258;2024-02-14T02:01:53;91755.53;;;2.23;81.03
20628;BME280;10473;42.734;24.258;2024-02-14T02:04:19;91753.56;;;2.41;79.85
20628;BME280;10473;42.734;24.258;2024-02-14T02:06:46;91756.59;;;2.37;81.12
20628;BME280;10473;42.734;24.258;2024-02-14T02:09:11;91745.81;;;2.18;80.87
20628;BME280;10473;42.734;24.258;2024-02-14T02:11:48;91755.78;;;2.36;80.67
20628;BME280;10473;42.734;24.258;2024-02-14T02:14:15;91747.22;;;2.29;80.96
20628;BME280;10473;42.734;24.258;2024-02-14T02:16:41;91758.72;;;2.17;81.21
20628;BME280;10473;42.734;24.258;2024-02-14T02:19:07;91766.38;;;2.25;80.94
20628;BME280;10473;42.734;24.258;2024-02-14T02:21:35;91761.91;;;2.27;80.38
20628;BME280;10473;42.734;24.258;2024-02-14T02:24:01;91770.88;;;2.15;81.57
20628;BME280;10473;42.734;24.258;2024-02-14T02:26:27;91781.22;;;2.21;82.08
20628;BME280;10473;42.734;24.258;2024-02-14T02:28:53;91775.91;;;2.31;81.10
20628;BME280;10473;42.734;24.258;2024-02-14T02:31:19;91767.16;;;2.25;81.10
20628;BME280;10473;42.734;24.258;2024-02-14T02:33:45;91779.00;;;2.10;82.67
20628;BME280;10473;42.734;24.258;2024-02-14T02:36:11;91770.94;;;2.38;82.33
20628;BME280;10473;42.734;24.258;2024-02-14T02:38:37;91781.03;;;2.23;81.94
20628;BME280;10473;42.734;24.258;2024-02-14T02:41:03;91780.41;;;2.21;81.76
20628;BME280;10473;42.734;24.258;2024-02-14T02:43:32;91788.25;;;2.19;81.88
20628;BME280;10473;42.734;24.258;2024-02-14T02:45:58;91782.78;;;2.31;81.70
20628;BME280;10473;42.734;24.258;2024-02-14T02:48:24;91783.66;;;2.15;81.15
20628;BME280;10473;42.734;24.258;2024-02-14T02:50:50;91783.31;;;2.10;81.89
20628;BME280;10473;42.734;24.258;2024-02-14T02:53:16;91794.50;;;2.00;83.46
20628;BME280;10473;42.734;24.258;2024-02-14T02:55:42;91797.69;;;2.02;81.41
20628;BME280;10473;42.734;24.258;2024-02-14T02:58:08;91810.25;;;2.20;81.36
20628;BME280;10473;42.734;24.258;2024-02-14T03:00:33;91803.56;;;2.19;80.97
20628;BME280;10473;42.734;24.258;2024-02-14T03:02:59;91799.91;;;2.14;81.00
20628;BME280;10473;42.734;24.258;2024-02-14T03:05:25;91791.16;;;2.00;80.45
20628;BME280;10473;42.734;24.258;2024-02-14T03:07:51;91789.56;;;2.07;80.70
20628;BME280;10473;42.734;24.258;2024-02-14T03:10:18;91814.56;;;2.12;82.00
20628;BME280;10473;42.734;24.258;2024-02-14T03:12:48;91815.56;;;2.02;82.36
20628;BME280;10473;42.734;24.258;2024-02-14T03:15:14;91816.69;;;2.00;82.46
20628;BME280;10473;42.734;24.258;2024-02-14T03:17:42;91816.66;;;2.08;81.34
20628;BME280;10473;42.734;24.258;2024-02-14T03:20:08;91819.19;;;2.16;81.82
20628;BME280;10473;42.734;24.258;2024-02-14T03:22:41;91813.00;;;2.11;80.31
20628;BME280;10473;42.734;24.258;2024-02-14T03:25:19;91840.44;;;2.00;80.99
20628;BME280;10473;42.734;24.258;2024-02-14T03:27:46;91827.16;;;2.21;80.18
20628;BME280;10473;42.734;24.258;2024-02-14T03:30:21;91830.22;;;2.09;82.49
20628;BME280;10473;42.734;24.258;2024-02-14T03:32:47;91834.69;;;1.98;83.00
20628;BME280;10473;42.734;24.258;2024-02-14T03:35:13;91841.38;;;2.08;82.39
20628;BME280;10473;42.734;24.258;2024-02-14T03:37:40;91840.25;;;2.10;82.68
20628;BME280;10473;42.734;24.258;2024-02-14T03:40:07;91845.66;;;2.23;81.90
20628;BME280;10473;42.734;24.258;2024-02-14T03:42:36;91844.25;;;1.88;81.76
20628;BME280;10473;42.734;24.258;2024-02-14T03:45:05;91842.19;;;2.00;81.51
20628;BME280;10473;42.734;24.258;2024-02-14T03:47:32;91851.28;;;2.11;81.05
20628;BME280;10473;42.734;24.258;2024-02-14T03:50:00;91847.25;;;2.08;81.32
20628;BME280;10473;42.734;24.258;2024-02-14T03:52:27;91843.63;;;1.94;80.57
20628;BME280;10473;42.734;24.258;2024-02-14T03:54:52;91853.03;;;1.85;82.20
20628;BME280;10473;42.734;24.258;2024-02-14T03:57:18;91851.13;;;1.88;82.72
20628;BME280;10473;42.734;24.258;2024-02-14T03:59:44;91858.00;;;1.87;80.85
20628;BME280;10473;42.734;24.258;2024-02-14T04:02:10;91861.81;;;1.91;81.23
20628;BME280;10473;42.734;24.258;2024-02-14T04:04:41;91874.72;;;1.98;80.91
20628;BME280;10473;42.734;24.258;2024-02-14T04:07:07;91871.69;;;2.11;79.98
20628;BME280;10473;42.734;24.258;2024-02-14T04:09:36;91860.34;;;2.05;80.69
20628;BME280;10473;42.734;24.258;2024-02-14T04:12:02;91880.63;;;1.98;80.93
20628;BME280;10473;42.734;24.258;2024-02-14T04:14:30;91886.66;;;2.05;79.28
20628;BME280;10473;42.734;24.258;2024-02-14T04:16:55;91876.16;;;1.92;79.10
20628;BME280;10473;42.734;24.258;2024-02-14T04:19:21;91886.03;;;2.12;79.02
20628;BME280;10473;42.734;24.258;2024-02-14T04:21:47;91887.94;;;2.01;79.25
20628;BME280;10473;42.734;24.258;2024-02-14T04:24:12;91886.19;;;1.94;81.04
20628;BME280;10473;42.734;24.258;2024-02-14T04:26:38;91896.41;;;1.94;81.93
20628;BME280;10473;42.734;24.258;2024-02-14T04:29:03;91896.06;;;2.13;79.72
20628;BME280;10473;42.734;24.258;2024-02-14T04:31:29;91901.97;;;2.22;80.29
20628;BME280;10473;42.734;24.258;2024-02-14T04:33:58;91898.00;;;2.11;79.46
20628;BME280;10473;42.734;24.258;2024-02-14T04:36:24;91903.25;;;2.18;80.27
20628;BME280;10473;42.734;24.258;2024-02-14T04:38:50;91899.72;;;2.35;78.89
20628;BME280;10473;42.734;24.258;2024-02-14T04:41:16;91905.34;;;2.06;78.76
20628;BME280;10473;42.734;24.258;2024-02-14T04:43:42;91912.16;;;1.73;81.71
20628;BME280;10473;42.734;24.258;2024-02-14T04:46:07;91913.94;;;1.89;80.67
20628;BME280;10473;42.734;24.258;2024-02-14T04:48:34;91913.47;;;1.93;79.60
20628;BME280;10473;42.734;24.258;2024-02-14T04:51:00;91920.78;;;1.88;80.59
20628;BME280;10473;42.734;24.258;2024-02-14T04:53:26;91912.50;;;1.94;80.77
20628;BME280;10473;42.734;24.258;2024-02-14T04:55:53;91912.66;;;2.01;80.61
20628;BME280;10473;42.734;24.258;2024-02-14T04:58:19;91928.13;;;1.83;81.40
20628;BME280;10473;42.734;24.258;2024-02-14T05:00:45;91932.91;;;1.78;82.63
20628;BME280;10473;42.734;24.258;2024-02-14T05:03:11;91924.91;;;1.73;81.85
20628;BME280;10473;42.734;24.258;2024-02-14T05:05:37;91923.81;;;1.75;82.01
20628;BME280;10473;42.734;24.258;2024-02-14T05:08:03;91931.94;;;2.03;79.62
20628;BME280;10473;42.734;24.258;2024-02-14T05:10:29;91936.41;;;2.26;79.73
20628;BME280;10473;42.734;24.258;2024-02-14T05:12:57;91942.47;;;2.17;78.84
20628;BME280;10473;42.734;24.258;2024-02-14T05:15:23;91943.13;;;2.11;79.13
20628;BME280;10473;42.734;24.258;2024-02-14T05:17:49;91949.00;;;1.95;81.14
20628;BME280;10473;42.734;24.258;2024-02-14T05:20:16;91950.16;;;2.09;79.31
20628;BME280;10473;42.734;24.258;2024-02-14T05:22:42;91944.56;;;2.13;79.04
20628;BME280;10473;42.734;24.258;2024-02-14T05:25:08;91960.84;;;2.04;79.79
20628;BME280;10473;42.734;24.258;2024-02-14T05:27:35;91969.72;;;1.75;79.90
20628;BME280;10473;42.734;24.258;2024-02-14T05:30:01;91972.16;;;1.93;80.95
20628;BME280;10473;42.734;24.258;2024-02-14T05:32:32;91973.22;;;1.91;80.54
20628;BME280;10473;42.734;24.258;2024-02-14T05:35:01;91973.09;;;1.92;81.65
20628;BME280;10473;42.734;24.258;2024-02-14T05:37:27;91988.66;;;1.56;81.18
20628;BME280;10473;42.734;24.258;2024-02-14T05:39:53;91982.91;;;1.54;80.84
20628;BME280;10473;42.734;24.258;2024-02-14T05:42:19;91999.03;;;1.71;80.88
20628;BME280;10473;42.734;24.258;2024-02-14T05:44:45;91995.84;;;1.69;81.29
20628;BME280;10473;42.734;24.258;2024-02-14T05:47:10;92007.59;;;1.46;82.92
20628;BME280;10473;42.734;24.258;2024-02-14T05:49:40;92010.72;;;1.90;82.29
20628;BME280;10473;42.734;24.258;2024-02-14T05:52:09;92015.94;;;1.72;82.08
20628;BME280;10473;42.734;24.258;2024-02-14T05:54:35;92020.75;;;1.83;81.26
20628;BME280;10473;42.734;24.258;2024-02-14T05:57:00;92016.44;;;1.84;81.68
20628;BME280;10473;42.734;24.258;2024-02-14T05:59:29;92008.66;;;1.94;80.23
20628;BME280;10473;42.734;24.258;2024-02-14T06:01:56;92022.63;;;1.73;82.06
20628;BME280;10473;42.734;24.258;2024-02-14T06:04:21;92025.31;;;1.63;81.54
20628;BME280;10473;42.734;24.258;2024-02-14T06:06:47;92041.88;;;1.59;82.27
20628;BME280;10473;42.734;24.258;2024-02-14T06:09:13;92041.00;;;1.85;82.62
20628;BME280;10473;42.734;24.258;2024-02-14T06:11:39;92041.78;;;1.85;81.54
20628;BME280;10473;42.734;24.258;2024-02-14T06:14:08;92044.72;;;2.15;80.20
20628;BME280;10473;42.734;24.258;2024-02-14T06:16:34;92047.09;;;2.09;81.25
20628;BME280;10473;42.734;24.258;2024-02-14T06:19:00;92053.94;;;1.92;81.07
20628;BME280;10473;42.734;24.258;2024-02-14T06:21:26;92052.16;;;1.92;81.56
20628;BME280;10473;42.734;24.258;2024-02-14T06:23:52;92058.09;;;2.09;80.61
20628;BME280;10473;42.734;24.258;2024-02-14T06:26:18;92057.31;;;2.17;80.14
20628;BME280;10473;42.734;24.258;2024-02-14T06:28:44;92069.59;;;2.05;80.56
20628;BME280;10473;42.734;24.258;2024-02-14T06:31:10;92070.84;;;2.01;81.62
20628;BME280;10473;42.734;24.258;2024-02-14T06:33:35;92075.63;;;1.96;81.36
20628;BME280;10473;42.734;24.258;2024-02-14T06:36:01;92071.44;;;1.78;82.22
20628;BME280;10473;42.734;24.258;2024-02-14T06:38:27;92074.97;;;1.51;82.73
20628;BME280;10473;42.734;24.258;2024-02-14T06:40:52;92079.47;;;1.57;83.90
20628;BME280;10473;42.734;24.258;2024-02-14T06:43:18;92082.75;;;1.76;82.60
20628;BME280;10473;42.734;24.258;2024-02-14T06:45:45;92086.16;;;2.01;81.83
20628;BME280;10473;42.734;24.258;2024-02-14T06:48:10;92092.63;;;1.79;82.06
20628;BME280;10473;42.734;24.258;2024-02-14T06:50:36;92096.47;;;1.83;83.30
20628;BME280;10473;42.734;24.258;2024-02-14T06:53:01;92100.69;;;2.09;82.35
20628;BME280;10473;42.734;24.258;2024-02-14T06:55:27;92108.78;;;1.96;82.73
20628;BME280;10473;42.734;24.258;2024-02-14T06:57:54;92106.75;;;2.16;82.71
20628;BME280;10473;42.734;24.258;2024-02-14T07:00:20;92106.28;;;2.12;82.73
20628;BME280;10473;42.734;24.258;2024-02-14T07:02:45;92106.75;;;2.08;83.64
20628;BME280;10473;42.734;24.258;2024-02-14T07:05:13;92113.47;;;2.25;83.17
20628;BME280;10473;42.734;24.258;2024-02-14T07:07:40;92121.59;;;2.20;83.03
20628;BME280;10473;42.734;24.258;2024-02-14T07:10:07;92121.84;;;1.84;84.82
20628;BME280;10473;42.734;24.258;2024-02-14T07:12:33;92126.94;;;1.93;84.35
20628;BME280;10473;42.734;24.258;2024-02-14T07:14:58;92130.41;;;2.26;83.35
20628;BME280;10473;42.734;24.258;2024-02-14T07:17:24;92134.41;;;2.45;82.27
20628;BME280;10473;42.734;24.258;2024-02-14T07:19:49;92131.72;;;2.46;82.12
20628;BME280;10473;42.734;24.258;2024-02-14T07:22:15;92137.91;;;2.36;82.99
20628;BME280;10473;42.734;24.258;2024-02-14T07:24:44;92137.31;;;2.50;82.31
20628;BME280;10473;42.734;24.258;2024-02-14T07:27:12;92137.00;;;2.53;82.23
20628;BME280;10473;42.734;24.258;2024-02-14T07:29:38;92137.47;;;2.57;81.47
20628;BME280;10473;42.734;24.258;2024-02-14T07:32:03;92142.91;;;2.62;82.50
20628;BME280;10473;42.734;24.258;2024-02-14T07:34:29;92154.03;;;2.36;81.38
20628;BME280;10473;42.734;24.258;2024-02-14T07:36:54;92147.66;;;2.32;83.08
20628;BME280;10473;42.734;24.258;2024-02-14T07:39:20;92145.56;;;2.36;83.16
20628;BME280;10473;42.734;24.258;2024-02-14T07:41:45;92146.13;;;2.05;82.74
20628;BME280;10473;42.734;24.258;2024-02-14T07:44:12;92154.16;;;2.18;83.22
20628;BME280;10473;42.734;24.258;2024-02-14T07:46:38;92157.53;;;2.27;82.21
20628;BME280;10473;42.734;24.258;2024-02-14T07:49:04;92157.88;;;2.32;82.24
20628;BME280;10473;42.734;24.258;2024-02-14T07:51:30;92160.09;;;2.35;82.52
20628;BME280;10473;42.734;24.258;2024-02-14T07:54:02;92153.75;;;2.47;82.69
20628;BME280;10473;42.734;24.258;2024-02-14T07:56:29;92159.16;;;2.44;80.92
20628;BME280;10473;42.734;24.258;2024-02-14T07:58:54;92161.47;;;2.13;80.40
20628;BME280;10473;42.734;24.258;2024-02-14T08:01:20;92156.97;;;2.07;81.33
20628;BME280;10473;42.734;24.258;2024-02-14T08:03:45;92157.84;;;2.24;81.87
20628;BME280;10473;42.734;24.258;2024-02-14T08:06:12;92162.97;;;2.40;81.47
20628;BME280;10473;42.734;24.258;2024-02-14T08:08:37;92163.97;;;2.47;80.71
20628;BME280;10473;42.734;24.258;2024-02-14T08:11:03;92156.94;;;2.50;81.04
20628;BME280;10473;42.734;24.258;2024-02-14T08:13:29;92157.59;;;2.52;81.53
20628;BME280;10473;42.734;24.258;2024-02-14T08:15:54;92158.84;;;2.47;81.73
20628;BME280;10473;42.734;24.258;2024-02-14T08:18:20;92158.41;;;2.60;79.44
20628;BME280;10473;42.734;24.258;2024-02-14T08:20:45;92164.75;;;2.48;80.09
20628;BME280;10473;42.734;24.258;2024-02-14T08:23:11;92166.34;;;2.49;80.37
20628;BME280;10473;42.734;24.258;2024-02-14T08:25:37;92165.56;;;2.57;78.98
20628;BME280;10473;42.734;24.258;2024-02-14T08:28:02;92166.88;;;2.69;80.25
20628;BME280;10473;42.734;24.258;2024-02-14T08:30:28;92161.72;;;2.44;80.61
20628;BME280;10473;42.734;24.258;2024-02-14T08:32:53;92160.09;;;2.35;82.05
20628;BME280;10473;42.734;24.258;2024-02-14T08:35:19;92160.13;;;2.43;79.19
20628;BME280;10473;42.734;24.258;2024-02-14T08:37:45;92158.81;;;2.31;78.37
20628;BME280;10473;42.734;24.258;2024-02-14T08:40:10;92167.31;;;2.48;77.38
20628;BME280;10473;42.734;24.258;2024-02-14T08:42:37;92166.50;;;2.56;78.04
20628;BME280;10473;42.734;24.258;2024-02-14T08:45:04;92168.25;;;2.47;78.31
20628;BME280;10473;42.734;24.258;2024-02-14T08:47:30;92150.31;;;2.22;78.32
20628;BME280;10473;42.734;24.258;2024-02-14T08:49:55;92159.59;;;2.32;77.22
20628;BME280;10473;42.734;24.258;2024-02-14T08:52:21;92165.41;;;2.50;78.01
20628;BME280;10473;42.734;24.258;2024-02-14T08:54:47;92169.53;;;2.51;76.77
20628;BME280;10473;42.734;24.258;2024-02-14T08:57:12;92163.34;;;2.62;78.71
20628;BME280;10473;42.734;24.258;2024-02-14T08:59:38;92152.69;;;2.91;76.90
20628;BME280;10473;42.734;24.258;2024-02-14T09:02:03;92157.78;;;3.07;76.42
20628;BME280;10473;42.734;24.258;2024-02-14T09:04:32;92145.66;;;2.93;74.01
20628;BME280;10473;42.734;24.258;2024-02-14T09:06:58;92161.72;;;2.53;74.86
20628;BME280;10473;42.734;24.258;2024-02-14T09:09:23;92152.81;;;2.81;75.40
20628;BME280;10473;42.734;24.258;2024-02-14T09:11:49;92145.16;;;2.73;76.15
20628;BME280;10473;42.734;24.258;2024-02-14T09:14:14;92135.41;;;2.68;75.94
20628;BME280;10473;42.734;24.258;2024-02-14T09:16:40;92133.34;;;2.80;76.56
20628;BME280;10473;42.734;24.258;2024-02-14T09:19:05;92136.22;;;2.94;75.37
20628;BME280;10473;42.734;24.258;2024-02-14T09:21:35;92133.34;;;3.05;77.46
20628;BME280;10473;42.734;24.258;2024-02-14T09:24:02;92125.38;;;2.92;76.17
20628;BME280;10473;42.734;24.258;2024-02-14T09:26:28;92126.34;;;2.82;77.76
20628;BME280;10473;42.734;24.258;2024-02-14T09:28:55;92120.75;;;2.87;76.91
20628;BME280;10473;42.734;24.258;2024-02-14T09:31:20;92120.56;;;2.97;78.23
20628;BME280;10473;42.734;24.258;2024-02-14T09:33:47;92130.78;;;3.05;73.02
20628;BME280;10473;42.734;24.258;2024-02-14T09:36:13;92125.19;;;3.18;73.00
20628;BME280;10473;42.734;24.258;2024-02-14T09:38:42;92134.00;;;3.07;75.12
20628;BME280;10473;42.734;24.258;2024-02-14T09:43:40;92125.34;;;3.24;71.84
20628;BME280;10473;42.734;24.258;2024-02-14T09:46:08;92134.13;;;3.22;71.99
20628;BME280;10473;42.734;24.258;2024-02-14T09:48:34;92137.16;;;3.34;72.45
20628;BME280;10473;42.734;24.258;2024-02-14T09:51:01;92128.66;;;3.49;71.95
20628;BME280;10473;42.734;24.258;2024-02-14T09:53:29;92133.75;;;3.58;74.14
20628;BME280;10473;42.734;24.258;2024-02-14T09:55:55;92129.75;;;3.63;68.62
20628;BME280;10473;42.734;24.258;2024-02-14T09:58:21;92122.56;;;3.67;69.97
20628;BME280;10473;42.734;24.258;2024-02-14T10:00:49;92120.75;;;3.76;68.18
20628;BME280;10473;42.734;24.258;2024-02-14T10:03:15;92127.91;;;3.88;70.49
20628;BME280;10473;42.734;24.258;2024-02-14T10:05:44;92130.28;;;3.90;67.91
20628;BME280;10473;42.734;24.258;2024-02-14T10:08:10;92127.56;;;3.91;68.85
20628;BME280;10473;42.734;24.258;2024-02-14T10:10:37;92128.94;;;4.10;69.05
20628;BME280;10473;42.734;24.258;2024-02-14T10:13:04;92127.19;;;4.03;69.22
20628;BME280;10473;42.734;24.258;2024-02-14T10:15:31;92129.25;;;4.07;68.48
20628;BME280;10473;42.734;24.258;2024-02-14T10:18:03;92126.53;;;4.09;69.02
20628;BME280;10473;42.734;24.258;2024-02-14T10:20:29;92127.97;;;4.11;69.12
20628;BME280;10473;42.734;24.258;2024-02-14T10:23:03;92112.94;;;4.08;68.07
20628;BME280;10473;42.734;24.258;2024-02-14T10:25:29;92119.34;;;4.13;69.18
20628;BME280;10473;42.734;24.258;2024-02-14T10:27:56;92119.78;;;4.16;68.64
20628;BME280;10473;42.734;24.258;2024-02-14T10:30:22;92122.78;;;4.28;68.38
20628;BME280;10473;42.734;24.258;2024-02-14T10:32:48;92113.13;;;4.38;68.15
20628;BME280;10473;42.734;24.258;2024-02-14T10:35:14;92117.47;;;4.61;68.67
20628;BME280;10473;42.734;24.258;2024-02-14T10:37:41;92117.53;;;4.76;67.77
20628;BME280;10473;42.734;24.258;2024-02-14T10:40:08;92125.53;;;4.72;66.03
20628;BME280;10473;42.734;24.258;2024-02-14T10:42:37;92126.69;;;4.70;64.98
20628;BME280;10473;42.734;24.258;2024-02-14T10:45:03;92130.03;;;4.47;64.75
20628;BME280;10473;42.734;24.258;2024-02-14T10:47:53;92128.97;;;4.65;65.80
20628;BME280;10473;42.734;24.258;2024-02-14T10:50:21;92131.50;;;4.73;65.80
20628;BME280;10473;42.734;24.258;2024-02-14T10:52:48;92136.03;;;4.63;66.34
20628;BME280;10473;42.734;24.258;2024-02-14T10:55:15;92135.00;;;4.72;66.87
20628;BME280;10473;42.734;24.258;2024-02-14T10:57:42;92121.28;;;4.65;67.41
20628;BME280;10473;42.734;24.258;2024-02-14T11:00:14;92141.53;;;4.51;66.13
20628;BME280;10473;42.734;24.258;2024-02-14T11:02:41;92134.56;;;4.68;65.12
20628;BME280;10473;42.734;24.258;2024-02-14T11:05:13;92133.84;;;4.74;64.73
20628;BME280;10473;42.734;24.258;2024-02-14T11:07:49;92130.28;;;4.84;64.13
20628;BME280;10473;42.734;24.258;2024-02-14T11:10:22;92128.84;;;4.81;64.47
20628;BME280;10473;42.734;24.258;2024-02-14T11:12:49;92131.53;;;4.65;63.34
20628;BME280;10473;42.734;24.258;2024-02-14T11:15:20;92121.91;;;4.67;63.99
20628;BME280;10473;42.734;24.258;2024-02-14T11:17:51;92112.28;;;4.69;61.41
20628;BME280;10473;42.734;24.258;2024-02-14T11:20:32;92119.00;;;4.70;63.43
20628;BME280;10473;42.734;24.258;2024-02-14T11:23:02;92116.84;;;4.82;63.32
20628;BME280;10473;42.734;24.258;2024-02-14T11:25:33;92129.28;;;4.39;64.56
20628;BME280;10473;42.734;24.258;2024-02-14T11:28:24;92130.00;;;5.02;63.95
20628;BME280;10473;42.734;24.258;2024-02-14T11:30:51;92119.19;;;4.68;61.95
20628;BME280;10473;42.734;24.258;2024-02-14T11:33:20;92135.88;;;4.64;62.18
20628;BME280;10473;42.734;24.258;2024-02-14T11:35:48;92147.94;;;4.56;63.10
20628;BME280;10473;42.734;24.258;2024-02-14T11:38:22;92129.06;;;4.48;63.87
20628;BME280;10473;42.734;24.258;2024-02-14T11:40:49;92125.09;;;4.15;64.26
20628;BME280;10473;42.734;24.258;2024-02-14T11:43:16;92129.19;;;3.93;65.08
20628;BME280;10473;42.734;24.258;2024-02-14T11:45:46;92122.09;;;4.03;64.79
20628;BME280;10473;42.734;24.258;2024-02-14T11:48:15;92135.69;;;4.03;65.64
20628;BME280;10473;42.734;24.258;2024-02-14T11:50:49;92131.19;;;4.05;64.56
20628;BME280;10473;42.734;24.258;2024-02-14T11:53:17;92134.44;;;3.99;64.79
20628;BME280;10473;42.734;24.258;2024-02-14T11:55:44;92147.88;;;4.01;63.60
20628;BME280;10473;42.734;24.258;2024-02-14T11:58:13;92135.22;;;4.00;64.45
20628;BME280;10473;42.734;24.258;2024-02-14T12:00:43;92153.06;;;4.16;65.84
20628;BME280;10473;42.734;24.258;2024-02-14T12:03:24;92144.28;;;4.19;63.02
20628;BME280;10473;42.734;24.258;2024-02-14T12:05:52;92145.25;;;4.09;63.17
20628;BME280;10473;42.734;24.258;2024-02-14T12:08:18;92137.00;;;3.99;61.80
20628;BME280;10473;42.734;24.258;2024-02-14T12:10:44;92139.59;;;4.22;61.06
20628;BME280;10473;42.734;24.258;2024-02-14T12:13:19;92141.00;;;4.33;60.80
20628;BME280;10473;42.734;24.258;2024-02-14T12:15:49;92151.03;;;4.03;62.13
20628;BME280;10473;42.734;24.258;2024-02-14T12:18:22;92149.59;;;4.01;63.01
20628;BME280;10473;42.734;24.258;2024-02-14T12:20:49;92149.72;;;4.16;63.40
20628;BME280;10473;42.734;24.258;2024-02-14T12:23:17;92154.69;;;4.17;61.44
20628;BME280;10473;42.734;24.258;2024-02-14T12:25:43;92157.94;;;3.95;59.94
20628;BME280;10473;42.734;24.258;2024-02-14T12:28:16;92157.63;;;4.37;62.61
20628;BME280;10473;42.734;24.258;2024-02-14T12:30:49;92171.44;;;4.59;59.66
20628;BME280;10473;42.734;24.258;2024-02-14T12:33:16;92160.19;;;4.68;60.89
20628;BME280;10473;42.734;24.258;2024-02-14T12:35:47;92167.09;;;4.60;62.09
20628;BME280;10473;42.734;24.258;2024-02-14T12:38:15;92174.41;;;4.71;62.30
20628;BME280;10473;42.734;24.258;2024-02-14T12:40:41;92168.28;;;4.80;59.54
20628;BME280;10473;42.734;24.258;2024-02-14T12:43:08;92178.06;;;5.00;60.65
20628;BME280;10473;42.734;24.258;2024-02-14T12:45:34;92165.88;;;4.56;61.45
20628;BME280;10473;42.734;24.258;2024-02-14T12:48:00;92180.34;;;4.71;63.19
20628;BME280;10473;42.734;24.258;2024-02-14T12:50:25;92170.91;;;4.41;60.71
20628;BME280;10473;42.734;24.258;2024-02-14T12:52:51;92166.81;;;4.23;62.77
20628;BME280;10473;42.734;24.258;2024-02-14T12:55:17;92152.44;;;3.66;66.48
20628;BME280;10473;42.734;24.258;2024-02-14T12:57:44;92158.66;;;3.72;65.84
20628;BME280;10473;42.734;24.258;2024-02-14T13:00:10;92150.19;;;3.80;66.91